sensor_id;sensor_type;location;lat;lon;timestamp;P1;durP1;ratioP1;P2;durP2;ratioP2
37823;SDS011;23667;43.246;26.576;2022-08-21T00:01:13;8.13;;;5.20;;
37823;SDS011;23667;43.246;26.576;2022-08-21T00:03:43;10.15;;;5.28;;
37823;SDS011;23667;43.246;26.576;2022-08-21T00:06:09;7.28;;;5.05;;
37823;SDS011;23667;43.246;26.576;2022-08-21T00:08:34;6.45;;;5.38;;
37823;SDS011;23667;43.246;26.576;2022-08-21T00:11:00;13.35;;;5.50;;
37823;SDS011;23667;43.246;26.576;2022-08-21T00:13:26;16.77;;;5.70;;
37823;SDS011;23667;43.246;26.576;2022-08-21T00:15:52;9.40;;;4.95;;
37823;SDS011;23667;43.246;26.576;2022-08-21T00:18:18;10.20;;;5.20;;
37823;SDS011;23667;43.246;26.576;2022-08-21T00:20:44;7.05;;;5.43;;
37823;SDS011;23667;43.246;26.576;2022-08-21T00:23:11;7.15;;;5.03;;
37823;SDS011;23667;43.246;26.576;2022-08-21T00:25:37;8.55;;;5.07;;
37823;SDS011;23667;43.246;26.576;2022-08-21T00:28:03;9.48;;;5.53;;
37823;SDS011;23667;43.246;26.576;2022-08-21T00:30:29;8.07;;;5.30;;
37823;SDS011;23667;43.246;26.576;2022-08-21T00:32:55;7.00;;;4.82;;
37823;SDS011;23667;43.246;26.576;2022-08-21T00:35:25;9.55;;;5.63;;
37823;SDS011;23667;43.246;26.576;2022-08-21T00:37:52;13.45;;;5.57;;
37823;SDS011;23667;43.246;26.576;2022-08-21T00:40:20;10.32;;;6.30;;
37823;SDS011;23667;43.246;26.576;2022-08-21T00:42:48;11.20;;;7.95;;
37823;SDS011;23667;43.246;26.576;2022-08-21T00:45:15;15.00;;;9.93;;
37823;SDS011;23667;43.246;26.576;2022-08-21T00:47:41;8.77;;;7.88;;
37823;SDS011;23667;43.246;26.576;2022-08-21T00:50:06;10.45;;;6.38;;
37823;SDS011;23667;43.246;26.576;2022-08-21T00:52:34;13.27;;;6.43;;
37823;SDS011;23667;43.246;26.576;2022-08-21T00:55:02;6.20;;;5.60;;
37823;SDS011;23667;43.246;26.576;2022-08-21T00:57:31;9.63;;;5.82;;
37823;SDS011;23667;43.246;26.576;2022-08-21T01:00:03;10.15;;;5.93;;
37823;SDS011;23667;43.246;26.576;2022-08-21T01:02:32;12.00;;;5.68;;
37823;SDS011;23667;43.246;26.576;2022-08-21T01:04:58;10.13;;;7.03;;
37823;SDS011;23667;43.246;26.576;2022-08-21T01:07:23;11.43;;;6.63;;
37823;SDS011;23667;43.246;26.576;2022-08-21T01:09:50;14.13;;;6.45;;
37823;SDS011;23667;43.246;26.576;2022-08-21T01:12:16;12.73;;;5.65;;
37823;SDS011;23667;43.246;26.576;2022-08-21T01:14:43;15.95;;;6.32;;
37823;SDS011;23667;43.246;26.576;2022-08-21T01:17:10;9.35;;;5.88;;
37823;SDS011;23667;43.246;26.576;2022-08-21T01:19:37;11.98;;;6.25;;
37823;SDS011;23667;43.246;26.576;2022-08-21T01:22:03;8.30;;;6.05;;
37823;SDS011;23667;43.246;26.576;2022-08-21T01:24:29;14.68;;;5.95;;
37823;SDS011;23667;43.246;26.576;2022-08-21T01:26:56;9.98;;;5.95;;
37823;SDS011;23667;43.246;26.576;2022-08-21T01:29:38;11.57;;;5.82;;
37823;SDS011;23667;43.246;26.576;2022-08-21T01:32:05;13.02;;;5.55;;
37823;SDS011;23667;43.246;26.576;2022-08-21T01:34:33;10.52;;;6.47;;
37823;SDS011;23667;43.246;26.576;2022-08-21T01:37:02;13.88;;;6.22;;
37823;SDS011;23667;43.246;26.576;2022-08-21T01:39:28;12.93;;;6.75;;
37823;SDS011;23667;43.246;26.576;2022-08-21T01:41:53;14.13;;;6.22;;
37823;SDS011;23667;43.246;26.576;2022-08-21T01:44:23;12.27;;;6.07;;
37823;SDS011;23667;43.246;26.576;2022-08-21T01:46:50;12.55;;;6.78;;
37823;SDS011;23667;43.246;26.576;2022-08-21T01:49:16;14.75;;;6.65;;
37823;SDS011;23667;43.246;26.576;2022-08-21T01:51:42;12.55;;;6.68;;
37823;SDS011;23667;43.246;26.576;2022-08-21T01:54:09;14.75;;;6.45;;
37823;SDS011;23667;43.246;26.576;2022-08-21T01:56:39;13.93;;;5.82;;
37823;SDS011;23667;43.246;26.576;2022-08-21T01:59:07;11.60;;;6.13;;
37823;SDS011;23667;43.246;26.576;2022-08-21T02:01:33;13.77;;;6.45;;
37823;SDS011;23667;43.246;26.576;2022-08-21T02:03:58;13.38;;;6.32;;
37823;SDS011;23667;43.246;26.576;2022-08-21T02:06:24;11.50;;;6.22;;
37823;SDS011;23667;43.246;26.576;2022-08-21T02:08:51;12.02;;;6.20;;
37823;SDS011;23667;43.246;26.576;2022-08-21T02:11:17;10.30;;;6.57;;
37823;SDS011;23667;43.246;26.576;2022-08-21T02:13:43;12.63;;;6.50;;
37823;SDS011;23667;43.246;26.576;2022-08-21T02:16:09;11.45;;;5.95;;
37823;SDS011;23667;43.246;26.576;2022-08-21T02:18:35;14.07;;;6.43;;
37823;SDS011;23667;43.246;26.576;2022-08-21T02:21:01;9.93;;;5.47;;
37823;SDS011;23667;43.246;26.576;2022-08-21T02:23:27;14.40;;;6.95;;
37823;SDS011;23667;43.246;26.576;2022-08-21T02:26:02;15.30;;;6.70;;
37823;SDS011;23667;43.246;26.576;2022-08-21T02:28:29;13.10;;;6.63;;
37823;SDS011;23667;43.246;26.576;2022-08-21T02:30:55;12.30;;;6.88;;
37823;SDS011;23667;43.246;26.576;2022-08-21T02:33:21;13.90;;;6.93;;
37823;SDS011;23667;43.246;26.576;2022-08-21T02:35:48;17.23;;;8.25;;
37823;SDS011;23667;43.246;26.576;2022-08-21T02:38:15;16.20;;;6.65;;
37823;SDS011;23667;43.246;26.576;2022-08-21T02:40:43;9.60;;;7.70;;
37823;SDS011;23667;43.246;26.576;2022-08-21T02:43:10;17.40;;;7.05;;
37823;SDS011;23667;43.246;26.576;2022-08-21T02:45:37;13.55;;;6.82;;
37823;SDS011;23667;43.246;26.576;2022-08-21T02:48:04;13.40;;;6.72;;
37823;SDS011;23667;43.246;26.576;2022-08-21T02:50:37;15.50;;;6.72;;
37823;SDS011;23667;43.246;26.576;2022-08-21T02:53:06;15.77;;;6.90;;
37823;SDS011;23667;43.246;26.576;2022-08-21T02:55:33;18.45;;;7.70;;
37823;SDS011;23667;43.246;26.576;2022-08-21T02:58:00;17.20;;;7.60;;
37823;SDS011;23667;43.246;26.576;2022-08-21T03:00:29;12.00;;;6.68;;
37823;SDS011;23667;43.246;26.576;2022-08-21T03:02:57;10.95;;;6.72;;
37823;SDS011;23667;43.246;26.576;2022-08-21T03:05:24;13.15;;;6.65;;
37823;SDS011;23667;43.246;26.576;2022-08-21T03:07:50;12.68;;;7.53;;
37823;SDS011;23667;43.246;26.576;2022-08-21T03:10:17;15.18;;;7.80;;
37823;SDS011;23667;43.246;26.576;2022-08-21T03:12:45;13.00;;;7.18;;
37823;SDS011;23667;43.246;26.576;2022-08-21T03:15:13;11.10;;;7.88;;
37823;SDS011;23667;43.246;26.576;2022-08-21T03:17:42;13.32;;;7.55;;
37823;SDS011;23667;43.246;26.576;2022-08-21T03:20:08;14.25;;;8.27;;
37823;SDS011;23667;43.246;26.576;2022-08-21T03:22:34;10.20;;;7.65;;
37823;SDS011;23667;43.246;26.576;2022-08-21T03:25:00;10.40;;;7.47;;
37823;SDS011;23667;43.246;26.576;2022-08-21T03:27:26;13.65;;;8.13;;
37823;SDS011;23667;43.246;26.576;2022-08-21T03:29:54;8.90;;;7.38;;
37823;SDS011;23667;43.246;26.576;2022-08-21T03:32:20;11.95;;;7.63;;
37823;SDS011;23667;43.246;26.576;2022-08-21T03:34:45;12.95;;;7.93;;
37823;SDS011;23667;43.246;26.576;2022-08-21T03:37:12;17.35;;;8.02;;
37823;SDS011;23667;43.246;26.576;2022-08-21T03:39:38;14.70;;;8.20;;
37823;SDS011;23667;43.246;26.576;2022-08-21T03:42:03;8.88;;;7.40;;
37823;SDS011;23667;43.246;26.576;2022-08-21T03:44:30;11.75;;;7.25;;
37823;SDS011;23667;43.246;26.576;2022-08-21T03:46:56;13.63;;;7.72;;
37823;SDS011;23667;43.246;26.576;2022-08-21T03:49:22;10.13;;;7.57;;
37823;SDS011;23667;43.246;26.576;2022-08-21T03:51:48;9.60;;;7.32;;
37823;SDS011;23667;43.246;26.576;2022-08-21T03:54:14;10.52;;;7.22;;
37823;SDS011;23667;43.246;26.576;2022-08-21T03:56:39;11.23;;;7.50;;
37823;SDS011;23667;43.246;26.576;2022-08-21T03:59:05;17.17;;;7.80;;
37823;SDS011;23667;43.246;26.576;2022-08-21T04:01:31;13.40;;;8.13;;
37823;SDS011;23667;43.246;26.576;2022-08-21T04:03:57;16.17;;;7.97;;
37823;SDS011;23667;43.246;26.576;2022-08-21T04:06:23;19.10;;;7.65;;
37823;SDS011;23667;43.246;26.576;2022-08-21T04:08:48;17.33;;;7.80;;
37823;SDS011;23667;43.246;26.576;2022-08-21T04:11:14;13.57;;;7.88;;
37823;SDS011;23667;43.246;26.576;2022-08-21T04:13:39;12.30;;;7.78;;
37823;SDS011;23667;43.246;26.576;2022-08-21T04:16:05;15.40;;;7.38;;
37823;SDS011;23667;43.246;26.576;2022-08-21T04:18:32;10.05;;;6.93;;
37823;SDS011;23667;43.246;26.576;2022-08-21T04:20:57;11.65;;;7.25;;
37823;SDS011;23667;43.246;26.576;2022-08-21T04:23:25;13.85;;;7.75;;
37823;SDS011;23667;43.246;26.576;2022-08-21T04:25:51;15.52;;;7.68;;
37823;SDS011;23667;43.246;26.576;2022-08-21T04:28:18;12.43;;;6.93;;
37823;SDS011;23667;43.246;26.576;2022-08-21T04:30:51;12.82;;;7.50;;
37823;SDS011;23667;43.246;26.576;2022-08-21T04:33:22;13.55;;;7.35;;
37823;SDS011;23667;43.246;26.576;2022-08-21T04:35:49;14.73;;;7.50;;
37823;SDS011;23667;43.246;26.576;2022-08-21T04:38:15;18.05;;;7.65;;
37823;SDS011;23667;43.246;26.576;2022-08-21T04:40:41;12.48;;;7.00;;
37823;SDS011;23667;43.246;26.576;2022-08-21T04:43:11;9.10;;;6.63;;
37823;SDS011;23667;43.246;26.576;2022-08-21T04:45:39;14.48;;;6.47;;
37823;SDS011;23667;43.246;26.576;2022-08-21T04:48:07;14.88;;;7.18;;
37823;SDS011;23667;43.246;26.576;2022-08-21T04:50:39;13.70;;;6.93;;
37823;SDS011;23667;43.246;26.576;2022-08-21T04:53:16;12.63;;;6.82;;
37823;SDS011;23667;43.246;26.576;2022-08-21T04:55:49;12.65;;;7.28;;
37823;SDS011;23667;43.246;26.576;2022-08-21T04:58:19;11.50;;;7.03;;
37823;SDS011;23667;43.246;26.576;2022-08-21T05:00:47;12.25;;;6.53;;
37823;SDS011;23667;43.246;26.576;2022-08-21T05:03:14;14.43;;;7.38;;
37823;SDS011;23667;43.246;26.576;2022-08-21T05:05:42;12.50;;;6.53;;
37823;SDS011;23667;43.246;26.576;2022-08-21T05:08:09;16.20;;;6.65;;
37823;SDS011;23667;43.246;26.576;2022-08-21T05:10:39;21.35;;;6.15;;
37823;SDS011;23667;43.246;26.576;2022-08-21T05:13:07;13.50;;;6.72;;
37823;SDS011;23667;43.246;26.576;2022-08-21T05:15:32;12.23;;;6.82;;
37823;SDS011;23667;43.246;26.576;2022-08-21T05:17:58;11.55;;;6.45;;
37823;SDS011;23667;43.246;26.576;2022-08-21T05:20:23;10.48;;;7.15;;
37823;SDS011;23667;43.246;26.576;2022-08-21T05:22:49;13.48;;;6.43;;
37823;SDS011;23667;43.246;26.576;2022-08-21T05:25:14;14.30;;;7.80;;
37823;SDS011;23667;43.246;26.576;2022-08-21T05:27:41;14.20;;;7.35;;
37823;SDS011;23667;43.246;26.576;2022-08-21T05:30:07;14.50;;;9.15;;
37823;SDS011;23667;43.246;26.576;2022-08-21T05:32:34;13.77;;;7.10;;
37823;SDS011;23667;43.246;26.576;2022-08-21T05:35:01;12.98;;;7.10;;
37823;SDS011;23667;43.246;26.576;2022-08-21T05:37:29;11.65;;;5.93;;
37823;SDS011;23667;43.246;26.576;2022-08-21T05:39:55;12.32;;;6.57;;
37823;SDS011;23667;43.246;26.576;2022-08-21T05:42:20;13.30;;;5.78;;
37823;SDS011;23667;43.246;26.576;2022-08-21T05:44:46;9.70;;;5.03;;
37823;SDS011;23667;43.246;26.576;2022-08-21T05:47:12;12.00;;;5.28;;
37823;SDS011;23667;43.246;26.576;2022-08-21T05:49:37;13.45;;;5.88;;
37823;SDS011;23667;43.246;26.576;2022-08-21T05:52:03;11.77;;;5.18;;
37823;SDS011;23667;43.246;26.576;2022-08-21T05:54:29;8.80;;;5.00;;
37823;SDS011;23667;43.246;26.576;2022-08-21T05:56:55;9.25;;;4.65;;
37823;SDS011;23667;43.246;26.576;2022-08-21T05:59:21;13.13;;;5.22;;
37823;SDS011;23667;43.246;26.576;2022-08-21T06:01:46;12.50;;;4.22;;
37823;SDS011;23667;43.246;26.576;2022-08-21T06:04:12;9.00;;;4.75;;
37823;SDS011;23667;43.246;26.576;2022-08-21T06:06:38;7.70;;;3.58;;
37823;SDS011;23667;43.246;26.576;2022-08-21T06:09:04;10.68;;;4.28;;
37823;SDS011;23667;43.246;26.576;2022-08-21T06:11:30;7.40;;;3.40;;
37823;SDS011;23667;43.246;26.576;2022-08-21T06:13:57;15.25;;;4.22;;
37823;SDS011;23667;43.246;26.576;2022-08-21T06:16:23;10.18;;;3.55;;
37823;SDS011;23667;43.246;26.576;2022-08-21T06:18:49;5.82;;;3.15;;
37823;SDS011;23667;43.246;26.576;2022-08-21T06:21:14;8.95;;;2.88;;
37823;SDS011;23667;43.246;26.576;2022-08-21T06:23:41;11.82;;;4.53;;
37823;SDS011;23667;43.246;26.576;2022-08-21T06:26:07;8.95;;;3.88;;
37823;SDS011;23667;43.246;26.576;2022-08-21T06:28:33;10.25;;;3.83;;
37823;SDS011;23667;43.246;26.576;2022-08-21T06:30:59;12.23;;;3.40;;
37823;SDS011;23667;43.246;26.576;2022-08-21T06:33:25;12.05;;;2.53;;
37823;SDS011;23667;43.246;26.576;2022-08-21T06:35:51;9.90;;;3.42;;
37823;SDS011;23667;43.246;26.576;2022-08-21T06:38:17;7.13;;;2.78;;
37823;SDS011;23667;43.246;26.576;2022-08-21T06:40:43;8.25;;;3.00;;
37823;SDS011;23667;43.246;26.576;2022-08-21T06:43:09;5.75;;;2.50;;
37823;SDS011;23667;43.246;26.576;2022-08-21T06:45:38;12.52;;;3.25;;
37823;SDS011;23667;43.246;26.576;2022-08-21T06:48:04;11.30;;;3.00;;
37823;SDS011;23667;43.246;26.576;2022-08-21T06:50:32;10.23;;;3.30;;
37823;SDS011;23667;43.246;26.576;2022-08-21T06:53:02;7.75;;;3.20;;
37823;SDS011;23667;43.246;26.576;2022-08-21T06:55:33;9.20;;;2.85;;
37823;SDS011;23667;43.246;26.576;2022-08-21T06:57:59;7.78;;;2.95;;
37823;SDS011;23667;43.246;26.576;2022-08-21T07:00:24;10.32;;;3.70;;
37823;SDS011;23667;43.246;26.576;2022-08-21T07:02:50;13.65;;;2.75;;
37823;SDS011;23667;43.246;26.576;2022-08-21T07:05:16;7.35;;;2.88;;
37823;SDS011;23667;43.246;26.576;2022-08-21T07:07:42;6.97;;;3.30;;
37823;SDS011;23667;43.246;26.576;2022-08-21T07:10:08;6.85;;;2.65;;
37823;SDS011;23667;43.246;26.576;2022-08-21T07:12:34;14.57;;;2.80;;
37823;SDS011;23667;43.246;26.576;2022-08-21T07:15:00;12.57;;;2.50;;
37823;SDS011;23667;43.246;26.576;2022-08-21T07:17:25;8.73;;;3.38;;
37823;SDS011;23667;43.246;26.576;2022-08-21T07:19:51;5.88;;;2.58;;
37823;SDS011;23667;43.246;26.576;2022-08-21T07:22:18;7.85;;;2.60;;
37823;SDS011;23667;43.246;26.576;2022-08-21T07:24:45;6.90;;;2.85;;
37823;SDS011;23667;43.246;26.576;2022-08-21T07:27:12;7.95;;;3.10;;
37823;SDS011;23667;43.246;26.576;2022-08-21T07:29:37;9.02;;;2.80;;
37823;SDS011;23667;43.246;26.576;2022-08-21T07:32:03;7.47;;;2.78;;
37823;SDS011;23667;43.246;26.576;2022-08-21T07:34:29;9.60;;;2.95;;
37823;SDS011;23667;43.246;26.576;2022-08-21T07:36:55;8.38;;;2.47;;
37823;SDS011;23667;43.246;26.576;2022-08-21T07:39:21;13.32;;;2.90;;
37823;SDS011;23667;43.246;26.576;2022-08-21T07:41:46;10.00;;;2.90;;
37823;SDS011;23667;43.246;26.576;2022-08-21T07:44:12;8.60;;;3.42;;
37823;SDS011;23667;43.246;26.576;2022-08-21T07:46:38;8.38;;;3.08;;
37823;SDS011;23667;43.246;26.576;2022-08-21T07:49:03;11.18;;;3.35;;
37823;SDS011;23667;43.246;26.576;2022-08-21T07:51:29;5.25;;;2.72;;
37823;SDS011;23667;43.246;26.576;2022-08-21T07:53:56;10.77;;;3.00;;
37823;SDS011;23667;43.246;26.576;2022-08-21T07:56:24;10.93;;;2.90;;
37823;SDS011;23667;43.246;26.576;2022-08-21T07:58:50;8.18;;;2.88;;
37823;SDS011;23667;43.246;26.576;2022-08-21T08:01:15;6.25;;;3.25;;
37823;SDS011;23667;43.246;26.576;2022-08-21T08:03:41;11.68;;;3.15;;
37823;SDS011;23667;43.246;26.576;2022-08-21T08:06:07;8.20;;;3.15;;
37823;SDS011;23667;43.246;26.576;2022-08-21T08:08:37;8.35;;;3.47;;
37823;SDS011;23667;43.246;26.576;2022-08-21T08:11:09;11.80;;;3.00;;
37823;SDS011;23667;43.246;26.576;2022-08-21T08:13:47;10.00;;;3.22;;
37823;SDS011;23667;43.246;26.576;2022-08-21T08:16:16;13.00;;;3.28;;
37823;SDS011;23667;43.246;26.576;2022-08-21T08:18:42;13.73;;;3.35;;
37823;SDS011;23667;43.246;26.576;2022-08-21T08:21:09;5.63;;;3.20;;
37823;SDS011;23667;43.246;26.576;2022-08-21T08:23:36;7.35;;;3.17;;
37823;SDS011;23667;43.246;26.576;2022-08-21T08:26:02;8.02;;;3.00;;
37823;SDS011;23667;43.246;26.576;2022-08-21T08:28:28;9.95;;;3.10;;
37823;SDS011;23667;43.246;26.576;2022-08-21T08:30:56;11.05;;;3.30;;
37823;SDS011;23667;43.246;26.576;2022-08-21T08:33:22;9.38;;;2.80;;
37823;SDS011;23667;43.246;26.576;2022-08-21T08:35:49;11.48;;;2.92;;
37823;SDS011;23667;43.246;26.576;2022-08-21T08:38:16;7.80;;;3.20;;
37823;SDS011;23667;43.246;26.576;2022-08-21T08:43:31;13.02;;;3.13;;
37823;SDS011;23667;43.246;26.576;2022-08-21T08:45:59;17.20;;;3.65;;
37823;SDS011;23667;43.246;26.576;2022-08-21T08:51:00;11.00;;;3.00;;
37823;SDS011;23667;43.246;26.576;2022-08-21T08:53:31;7.60;;;3.25;;
37823;SDS011;23667;43.246;26.576;2022-08-21T08:56:01;9.80;;;2.83;;
37823;SDS011;23667;43.246;26.576;2022-08-21T08:58:37;11.23;;;2.95;;
37823;SDS011;23667;43.246;26.576;2022-08-21T09:01:10;9.50;;;3.15;;
37823;SDS011;23667;43.246;26.576;2022-08-21T09:03:41;8.55;;;2.95;;
37823;SDS011;23667;43.246;26.576;2022-08-21T09:09:02;10.10;;;3.10;;
37823;SDS011;23667;43.246;26.576;2022-08-21T09:12:08;5.28;;;2.50;;
37823;SDS011;23667;43.246;26.576;2022-08-21T09:14:44;9.23;;;3.13;;
37823;SDS011;23667;43.246;26.576;2022-08-21T09:17:55;10.93;;;3.15;;
37823;SDS011;23667;43.246;26.576;2022-08-21T09:20:17;8.07;;;3.22;;
37823;SDS011;23667;43.246;26.576;2022-08-21T09:28:38;5.25;;;2.60;;
37823;SDS011;23667;43.246;26.576;2022-08-21T09:31:07;9.38;;;3.60;;
37823;SDS011;23667;43.246;26.576;2022-08-21T09:36:04;11.40;;;2.75;;
37823;SDS011;23667;43.246;26.576;2022-08-21T09:38:34;12.00;;;3.38;;
37823;SDS011;23667;43.246;26.576;2022-08-21T09:43:33;8.23;;;3.20;;
37823;SDS011;23667;43.246;26.576;2022-08-21T09:46:02;9.00;;;2.65;;
37823;SDS011;23667;43.246;26.576;2022-08-21T09:48:37;10.32;;;2.70;;
37823;SDS011;23667;43.246;26.576;2022-08-21T09:51:06;9.38;;;2.60;;
37823;SDS011;23667;43.246;26.576;2022-08-21T09:53:38;8.95;;;2.63;;
37823;SDS011;23667;43.246;26.576;2022-08-21T09:59:18;5.85;;;2.67;;
37823;SDS011;23667;43.246;26.576;2022-08-21T10:01:57;7.45;;;2.42;;
37823;SDS011;23667;43.246;26.576;2022-08-21T10:04:32;6.28;;;2.95;;
37823;SDS011;23667;43.246;26.576;2022-08-21T10:07:11;10.02;;;2.58;;
37823;SDS011;23667;43.246;26.576;2022-08-21T10:09:39;10.48;;;2.65;;
37823;SDS011;23667;43.246;26.576;2022-08-21T10:12:17;10.55;;;3.00;;
37823;SDS011;23667;43.246;26.576;2022-08-21T10:20:29;8.85;;;2.50;;
37823;SDS011;23667;43.246;26.576;2022-08-21T10:25:45;7.28;;;2.42;;
37823;SDS011;23667;43.246;26.576;2022-08-21T10:28:39;13.32;;;2.53;;
37823;SDS011;23667;43.246;26.576;2022-08-21T10:31:34;9.85;;;3.05;;
37823;SDS011;23667;43.246;26.576;2022-08-21T10:37:03;10.30;;;2.63;;
37823;SDS011;23667;43.246;26.576;2022-08-21T10:39:50;9.38;;;2.30;;
37823;SDS011;23667;43.246;26.576;2022-08-21T10:43:15;10.48;;;1.75;;
37823;SDS011;23667;43.246;26.576;2022-08-21T10:48:04;6.32;;;2.20;;
37823;SDS011;23667;43.246;26.576;2022-08-21T10:50:44;5.05;;;1.88;;
37823;SDS011;23667;43.246;26.576;2022-08-21T10:53:33;9.15;;;1.85;;
37823;SDS011;23667;43.246;26.576;2022-08-21T11:06:34;9.02;;;1.83;;
37823;SDS011;23667;43.246;26.576;2022-08-21T11:09:07;6.18;;;1.88;;
37823;SDS011;23667;43.246;26.576;2022-08-21T11:11:42;11.18;;;2.53;;
37823;SDS011;23667;43.246;26.576;2022-08-21T11:14:21;7.22;;;1.60;;
37823;SDS011;23667;43.246;26.576;2022-08-21T11:17:08;4.25;;;1.50;;
37823;SDS011;23667;43.246;26.576;2022-08-21T11:19:52;6.05;;;2.00;;
37823;SDS011;23667;43.246;26.576;2022-08-21T11:22:49;9.98;;;1.80;;
37823;SDS011;23667;43.246;26.576;2022-08-21T11:25:27;10.43;;;2.00;;
37823;SDS011;23667;43.246;26.576;2022-08-21T11:36:34;10.50;;;1.67;;
37823;SDS011;23667;43.246;26.576;2022-08-21T11:39:52;8.98;;;1.98;;
37823;SDS011;23667;43.246;26.576;2022-08-21T11:42:08;5.35;;;1.70;;
37823;SDS011;23667;43.246;26.576;2022-08-21T11:50:29;14.82;;;2.25;;
37823;SDS011;23667;43.246;26.576;2022-08-21T11:55:29;12.00;;;1.98;;
37823;SDS011;23667;43.246;26.576;2022-08-21T11:58:04;9.32;;;1.65;;
37823;SDS011;23667;43.246;26.576;2022-08-21T12:00:44;10.63;;;2.13;;
37823;SDS011;23667;43.246;26.576;2022-08-21T12:03:15;5.53;;;1.80;;
37823;SDS011;23667;43.246;26.576;2022-08-21T12:05:52;7.13;;;2.35;;
37823;SDS011;23667;43.246;26.576;2022-08-21T12:08:30;7.47;;;1.98;;
37823;SDS011;23667;43.246;26.576;2022-08-21T12:11:08;9.65;;;1.85;;
37823;SDS011;23667;43.246;26.576;2022-08-21T12:13:37;4.50;;;2.13;;
37823;SDS011;23667;43.246;26.576;2022-08-21T12:16:15;7.88;;;2.30;;
37823;SDS011;23667;43.246;26.576;2022-08-21T12:19:28;7.35;;;1.58;;
37823;SDS011;23667;43.246;26.576;2022-08-21T12:27:29;6.30;;;1.55;;
37823;SDS011;23667;43.246;26.576;2022-08-21T12:30:20;8.23;;;1.67;;
37823;SDS011;23667;43.246;26.576;2022-08-21T12:33:01;9.23;;;1.70;;
37823;SDS011;23667;43.246;26.576;2022-08-21T12:35:40;10.38;;;2.13;;
37823;SDS011;23667;43.246;26.576;2022-08-21T12:40:46;7.10;;;1.60;;
37823;SDS011;23667;43.246;26.576;2022-08-21T12:43:13;3.42;;;1.70;;
37823;SDS011;23667;43.246;26.576;2022-08-21T12:45:45;5.10;;;1.60;;
37823;SDS011;23667;43.246;26.576;2022-08-21T12:53:50;5.32;;;1.50;;
37823;SDS011;23667;43.246;26.576;2022-08-21T12:56:18;4.20;;;1.40;;
37823;SDS011;23667;43.246;26.576;2022-08-21T12:58:49;7.82;;;2.25;;
37823;SDS011;23667;43.246;26.576;2022-08-21T13:01:19;6.40;;;1.40;;
37823;SDS011;23667;43.246;26.576;2022-08-21T13:03:51;7.13;;;1.90;;
37823;SDS011;23667;43.246;26.576;2022-08-21T13:06:19;11.30;;;2.33;;
37823;SDS011;23667;43.246;26.576;2022-08-21T13:08:48;6.88;;;1.48;;
37823;SDS011;23667;43.246;26.576;2022-08-21T13:11:20;5.03;;;1.95;;
37823;SDS011;23667;43.246;26.576;2022-08-21T13:13:49;9.73;;;1.55;;
37823;SDS011;23667;43.246;26.576;2022-08-21T13:16:33;10.23;;;1.80;;
37823;SDS011;23667;43.246;26.576;2022-08-21T13:19:04;7.30;;;1.33;;
37823;SDS011;23667;43.246;26.576;2022-08-21T13:21:38;8.07;;;1.83;;
37823;SDS011;23667;43.246;26.576;2022-08-21T13:26:40;7.10;;;1.98;;
37823;SDS011;23667;43.246;26.576;2022-08-21T13:29:12;6.95;;;1.63;;
37823;SDS011;23667;43.246;26.576;2022-08-21T13:31:46;8.48;;;1.50;;
37823;SDS011;23667;43.246;26.576;2022-08-21T13:34:37;4.65;;;1.55;;
37823;SDS011;23667;43.246;26.576;2022-08-21T13:37:04;5.55;;;1.20;;
37823;SDS011;23667;43.246;26.576;2022-08-21T13:39:32;3.85;;;1.45;;
37823;SDS011;23667;43.246;26.576;2022-08-21T13:41:59;8.75;;;1.50;;
37823;SDS011;23667;43.246;26.576;2022-08-21T13:44:35;5.82;;;1.42;;
37823;SDS011;23667;43.246;26.576;2022-08-21T13:47:09;8.00;;;1.70;;
37823;SDS011;23667;43.246;26.576;2022-08-21T13:49:47;10.65;;;1.65;;
37823;SDS011;23667;43.246;26.576;2022-08-21T13:52:24;19.10;;;2.25;;
37823;SDS011;23667;43.246;26.576;2022-08-21T13:54:53;7.18;;;3.15;;
37823;SDS011;23667;43.246;26.576;2022-08-21T13:57:29;17.13;;;2.95;;
37823;SDS011;23667;43.246;26.576;2022-08-21T14:02:50;11.85;;;3.58;;
37823;SDS011;23667;43.246;26.576;2022-08-21T14:08:00;13.52;;;3.25;;
37823;SDS011;23667;43.246;26.576;2022-08-21T14:10:42;9.10;;;3.95;;
37823;SDS011;23667;43.246;26.576;2022-08-21T14:13:37;10.93;;;3.42;;
37823;SDS011;23667;43.246;26.576;2022-08-21T14:16:09;13.95;;;3.47;;
37823;SDS011;23667;43.246;26.576;2022-08-21T14:19:04;8.05;;;3.72;;
37823;SDS011;23667;43.246;26.576;2022-08-21T14:21:39;7.90;;;3.00;;
37823;SDS011;23667;43.246;26.576;2022-08-21T14:24:09;8.50;;;3.17;;
37823;SDS011;23667;43.246;26.576;2022-08-21T14:26:43;13.05;;;3.97;;
37823;SDS011;23667;43.246;26.576;2022-08-21T14:29:12;13.85;;;3.70;;
37823;SDS011;23667;43.246;26.576;2022-08-21T14:31:40;10.15;;;3.20;;
37823;SDS011;23667;43.246;26.576;2022-08-21T14:34:07;9.00;;;3.22;;
37823;SDS011;23667;43.246;26.576;2022-08-21T14:36:36;7.00;;;3.67;;
37823;SDS011;23667;43.246;26.576;2022-08-21T14:39:02;10.80;;;3.63;;
37823;SDS011;23667;43.246;26.576;2022-08-21T14:41:27;12.25;;;3.90;;
37823;SDS011;23667;43.246;26.576;2022-08-21T14:43:54;8.38;;;3.38;;
37823;SDS011;23667;43.246;26.576;2022-08-21T14:46:23;19.38;;;4.15;;
37823;SDS011;23667;43.246;26.576;2022-08-21T14:48:50;10.85;;;4.03;;
37823;SDS011;23667;43.246;26.576;2022-08-21T14:51:16;10.43;;;4.85;;
37823;SDS011;23667;43.246;26.576;2022-08-21T14:53:42;10.77;;;4.80;;
37823;SDS011;23667;43.246;26.576;2022-08-21T14:56:08;9.50;;;4.68;;
37823;SDS011;23667;43.246;26.576;2022-08-21T14:58:36;14.52;;;4.75;;
37823;SDS011;23667;43.246;26.576;2022-08-21T15:01:05;9.75;;;4.30;;
37823;SDS011;23667;43.246;26.576;2022-08-21T15:03:32;16.00;;;4.53;;
37823;SDS011;23667;43.246;26.576;2022-08-21T15:05:59;20.75;;;6.00;;
37823;SDS011;23667;43.246;26.576;2022-08-21T15:08:25;17.15;;;5.82;;
37823;SDS011;23667;43.246;26.576;2022-08-21T15:10:51;23.73;;;7.13;;
37823;SDS011;23667;43.246;26.576;2022-08-21T15:13:18;19.55;;;9.07;;
37823;SDS011;23667;43.246;26.576;2022-08-21T15:15:44;20.80;;;8.63;;
37823;SDS011;23667;43.246;26.576;2022-08-21T15:18:13;36.28;;;10.25;;
37823;SDS011;23667;43.246;26.576;2022-08-21T15:20:39;38.45;;;11.75;;
37823;SDS011;23667;43.246;26.576;2022-08-21T15:23:05;50.42;;;12.15;;
37823;SDS011;23667;43.246;26.576;2022-08-21T15:25:33;40.58;;;10.50;;
37823;SDS011;23667;43.246;26.576;2022-08-21T15:28:00;18.10;;;11.80;;
37823;SDS011;23667;43.246;26.576;2022-08-21T15:30:26;22.92;;;11.23;;
37823;SDS011;23667;43.246;26.576;2022-08-21T15:32:54;18.08;;;10.57;;
37823;SDS011;23667;43.246;26.576;2022-08-21T15:35:19;20.77;;;11.20;;
37823;SDS011;23667;43.246;26.576;2022-08-21T15:37:45;21.67;;;11.68;;
37823;SDS011;23667;43.246;26.576;2022-08-21T15:40:10;16.35;;;11.07;;
37823;SDS011;23667;43.246;26.576;2022-08-21T15:42:38;19.40;;;12.00;;
37823;SDS011;23667;43.246;26.576;2022-08-21T15:45:05;18.08;;;11.48;;
37823;SDS011;23667;43.246;26.576;2022-08-21T15:47:33;21.10;;;12.65;;
37823;SDS011;23667;43.246;26.576;2022-08-21T15:50:02;21.17;;;12.32;;
37823;SDS011;23667;43.246;26.576;2022-08-21T15:52:29;18.95;;;12.40;;
37823;SDS011;23667;43.246;26.576;2022-08-21T15:54:54;21.73;;;12.50;;
37823;SDS011;23667;43.246;26.576;2022-08-21T15:57:22;19.02;;;11.45;;
37823;SDS011;23667;43.246;26.576;2022-08-21T15:59:49;25.73;;;10.85;;
37823;SDS011;23667;43.246;26.576;2022-08-21T16:02:27;19.30;;;11.48;;
37823;SDS011;23667;43.246;26.576;2022-08-21T16:04:55;21.85;;;11.10;;